sensor_id;sensor_type;location;lat;lon;timestamp;temperature;humidity
70851;DHT22;58475;49.662;9.636;2022-09-17T00:02:11;10.60;81.58
70851;DHT22;58475;49.662;9.636;2022-09-17T00:04:37;10.62;80.66
70851;DHT22;58475;49.662;9.636;2022-09-17T00:07:03;10.52;81.60
70851;DHT22;58475;49.662;9.636;2022-09-17T00:09:28;10.54;81.51
70851;DHT22;58475;49.662;9.636;2022-09-17T00:11:54;10.51;82.07
70851;DHT22;58475;49.662;9.636;2022-09-17T00:14:19;10.33;83.53
70851;DHT22;58475;49.662;9.636;2022-09-17T00:16:46;10.43;82.48
70851;DHT22;58475;49.662;9.636;2022-09-17T00:19:17;10.27;83.52
70851;DHT22;58475;49.662;9.636;2022-09-17T00:21:42;10.44;81.38
70851;DHT22;58475;49.662;9.636;2022-09-17T00:24:12;10.50;81.74
70851;DHT22;58475;49.662;9.636;2022-09-17T00:26:39;10.57;81.30
70851;DHT22;58475;49.662;9.636;2022-09-17T00:29:05;10.57;81.31
70851;DHT22;58475;49.662;9.636;2022-09-17T00:31:30;10.62;80.92
70851;DHT22;58475;49.662;9.636;2022-09-17T00:33:57;10.65;81.04
70851;DHT22;58475;49.662;9.636;2022-09-17T00:36:23;10.75;81.53
70851;DHT22;58475;49.662;9.636;2022-09-17T00:38:50;10.71;81.86
70851;DHT22;58475;49.662;9.636;2022-09-17T00:41:16;10.65;82.61
70851;DHT22;58475;49.662;9.636;2022-09-17T00:43:47;10.57;81.31
70851;DHT22;58475;49.662;9.636;2022-09-17T00:46:41;10.62;82.20
70851;DHT22;58475;49.662;9.636;2022-09-17T00:49:11;10.69;82.00
70851;DHT22;58475;49.662;9.636;2022-09-17T00:51:41;10.71;80.83
70851;DHT22;58475;49.662;9.636;2022-09-17T00:54:09;10.78;81.87
70851;DHT22;58475;49.662;9.636;2022-09-17T00:56:36;10.85;81.00
70851;DHT22;58475;49.662;9.636;2022-09-17T00:59:03;10.76;80.81
70851;DHT22;58475;49.662;9.636;2022-09-17T01:01:29;10.82;81.79
70851;DHT22;58475;49.662;9.636;2022-09-17T01:03:54;10.72;81.28
70851;DHT22;58475;49.662;9.636;2022-09-17T01:06:30;10.76;80.40
70851;DHT22;58475;49.662;9.636;2022-09-17T01:14:43;10.83;80.07
70851;DHT22;58475;49.662;9.636;2022-09-17T01:20:31;10.74;82.56
70851;DHT22;58475;49.662;9.636;2022-09-17T01:23:36;10.76;81.50
70851;DHT22;58475;49.662;9.636;2022-09-17T01:28:54;10.65;80.60
70851;DHT22;58475;49.662;9.636;2022-09-17T01:31:32;10.67;80.88
70851;DHT22;58475;49.662;9.636;2022-09-17T01:34:13;10.64;81.37
70851;DHT22;58475;49.662;9.636;2022-09-17T01:36:44;10.52;81.56
70851;DHT22;58475;49.662;9.636;2022-09-17T01:41:54;10.34;82.77
70851;DHT22;58475;49.662;9.636;2022-09-17T01:44:37;10.23;82.63
70851;DHT22;58475;49.662;9.636;2022-09-17T01:47:10;10.27;82.65
70851;DHT22;58475;49.662;9.636;2022-09-17T01:49:38;10.07;83.60
70851;DHT22;58475;49.662;9.636;2022-09-17T01:52:06;10.03;82.78
70851;DHT22;58475;49.662;9.636;2022-09-17T01:54:46;10.17;82.29
70851;DHT22;58475;49.662;9.636;2022-09-17T01:57:29;10.10;83.48
70851;DHT22;58475;49.662;9.636;2022-09-17T02:02:32;9.90;83.30
70851;DHT22;58475;49.662;9.636;2022-09-17T02:05:02;9.89;83.90
70851;DHT22;58475;49.662;9.636;2022-09-17T02:07:30;9.89;83.52
70851;DHT22;58475;49.662;9.636;2022-09-17T02:10:05;9.75;84.29
70851;DHT22;58475;49.662;9.636;2022-09-17T02:12:39;9.72;84.33
70851;DHT22;58475;49.662;9.636;2022-09-17T02:15:10;9.90;84.14
70851;DHT22;58475;49.662;9.636;2022-09-17T02:17:53;9.82;84.23
70851;DHT22;58475;49.662;9.636;2022-09-17T02:20:23;9.61;85.07
70851;DHT22;58475;49.662;9.636;2022-09-17T02:22:58;9.73;84.11
70851;DHT22;58475;49.662;9.636;2022-09-17T02:25:35;9.81;84.07
70851;DHT22;58475;49.662;9.636;2022-09-17T02:30:39;9.55;85.08
70851;DHT22;58475;49.662;9.636;2022-09-17T02:33:07;9.61;85.02
70851;DHT22;58475;49.662;9.636;2022-09-17T02:35:34;9.78;83.98
70851;DHT22;58475;49.662;9.636;2022-09-17T02:38:02;9.71;85.64
70851;DHT22;58475;49.662;9.636;2022-09-17T02:40:30;9.72;84.03
70851;DHT22;58475;49.662;9.636;2022-09-17T02:54:17;9.58;83.82
70851;DHT22;58475;49.662;9.636;2022-09-17T02:56:56;9.45;84.84
70851;DHT22;58475;49.662;9.636;2022-09-17T02:59:39;9.55;84.26
70851;DHT22;58475;49.662;9.636;2022-09-17T03:02:25;9.78;84.78
70851;DHT22;58475;49.662;9.636;2022-09-17T03:04:54;9.75;83.93
70851;DHT22;58475;49.662;9.636;2022-09-17T03:07:21;9.75;83.65
70851;DHT22;58475;49.662;9.636;2022-09-17T03:09:47;9.87;84.19
70851;DHT22;58475;49.662;9.636;2022-09-17T03:12:13;9.87;84.50
70851;DHT22;58475;49.662;9.636;2022-09-17T03:14:38;9.86;84.46
70851;DHT22;58475;49.662;9.636;2022-09-17T03:17:03;9.99;84.52
70851;DHT22;58475;49.662;9.636;2022-09-17T03:19:29;10.00;83.77
70851;DHT22;58475;49.662;9.636;2022-09-17T03:21:54;10.07;83.29
70851;DHT22;58475;49.662;9.636;2022-09-17T03:24:19;10.00;83.48
70851;DHT22;58475;49.662;9.636;2022-09-17T03:26:45;10.04;83.75
70851;DHT22;58475;49.662;9.636;2022-09-17T03:29:12;10.06;82.67
70851;DHT22;58475;49.662;9.636;2022-09-17T03:31:38;10.07;83.63
70851;DHT22;58475;49.662;9.636;2022-09-17T03:34:03;10.07;83.87
70851;DHT22;58475;49.662;9.636;2022-09-17T03:36:28;10.14;83.50
70851;DHT22;58475;49.662;9.636;2022-09-17T03:38:55;9.99;84.81
70851;DHT22;58475;49.662;9.636;2022-09-17T03:41:20;10.09;84.30
70851;DHT22;58475;49.662;9.636;2022-09-17T03:43:46;10.06;84.47
70851;DHT22;58475;49.662;9.636;2022-09-17T03:46:11;10.14;83.51
70851;DHT22;58475;49.662;9.636;2022-09-17T03:48:36;10.18;84.30
70851;DHT22;58475;49.662;9.636;2022-09-17T03:51:04;10.14;83.41
70851;DHT22;58475;49.662;9.636;2022-09-17T03:53:29;10.33;83.70
70851;DHT22;58475;49.662;9.636;2022-09-17T03:55:57;10.34;83.78
70851;DHT22;58475;49.662;9.636;2022-09-17T03:58:23;10.37;83.97
70851;DHT22;58475;49.662;9.636;2022-09-17T04:00:49;10.38;83.50
70851;DHT22;58475;49.662;9.636;2022-09-17T04:03:18;10.33;82.33
70851;DHT22;58475;49.662;9.636;2022-09-17T04:05:43;10.29;82.03
70851;DHT22;58475;49.662;9.636;2022-09-17T04:08:08;10.37;82.19
70851;DHT22;58475;49.662;9.636;2022-09-17T04:10:34;10.37;83.08
70851;DHT22;58475;49.662;9.636;2022-09-17T04:12:59;10.33;83.40
70851;DHT22;58475;49.662;9.636;2022-09-17T04:15:24;10.30;82.83
70851;DHT22;58475;49.662;9.636;2022-09-17T04:17:50;10.33;83.45
70851;DHT22;58475;49.662;9.636;2022-09-17T04:20:15;10.31;84.04
70851;DHT22;58475;49.662;9.636;2022-09-17T04:22:40;10.33;85.01
70851;DHT22;58475;49.662;9.636;2022-09-17T04:25:06;10.30;85.04
70851;DHT22;58475;49.662;9.636;2022-09-17T04:27:31;10.25;84.37
70851;DHT22;58475;49.662;9.636;2022-09-17T04:29:57;10.31;84.27
70851;DHT22;58475;49.662;9.636;2022-09-17T04:32:22;10.20;85.07
70851;DHT22;58475;49.662;9.636;2022-09-17T04:34:48;10.07;85.19
70851;DHT22;58475;49.662;9.636;2022-09-17T04:37:13;9.99;88.30
70851;DHT22;58475;49.662;9.636;2022-09-17T04:39:38;10.04;88.42
70851;DHT22;58475;49.662;9.636;2022-09-17T04:42:04;10.03;87.55
70851;DHT22;58475;49.662;9.636;2022-09-17T04:44:29;10.06;88.46
70851;DHT22;58475;49.662;9.636;2022-09-17T04:46:55;9.87;88.90
70851;DHT22;58475;49.662;9.636;2022-09-17T04:49:20;9.96;89.30
70851;DHT22;58475;49.662;9.636;2022-09-17T04:51:46;9.99;90.59
70851;DHT22;58475;49.662;9.636;2022-09-17T04:54:11;9.93;90.28
70851;DHT22;58475;49.662;9.636;2022-09-17T04:56:36;9.90;89.25
70851;DHT22;58475;49.662;9.636;2022-09-17T04:59:02;9.92;90.43
70851;DHT22;58475;49.662;9.636;2022-09-17T05:01:27;9.87;90.46
70851;DHT22;58475;49.662;9.636;2022-09-17T05:03:52;9.76;90.50
70851;DHT22;58475;49.662;9.636;2022-09-17T05:06:18;9.81;91.26
70851;DHT22;58475;49.662;9.636;2022-09-17T05:08:43;9.87;91.61
70851;DHT22;58475;49.662;9.636;2022-09-17T05:11:08;9.94;91.03
70851;DHT22;58475;49.662;9.636;2022-09-17T05:13:34;9.96;89.60
70851;DHT22;58475;49.662;9.636;2022-09-17T05:15:59;9.85;90.22
70851;DHT22;58475;49.662;9.636;2022-09-17T05:18:24;9.82;91.51
70851;DHT22;58475;49.662;9.636;2022-09-17T05:20:50;9.86;90.98
70851;DHT22;58475;49.662;9.636;2022-09-17T05:23:16;9.90;90.92
70851;DHT22;58475;49.662;9.636;2022-09-17T05:25:42;9.71;90.47
70851;DHT22;58475;49.662;9.636;2022-09-17T05:28:07;9.86;90.97
70851;DHT22;58475;49.662;9.636;2022-09-17T05:30:33;9.85;91.82
70851;DHT22;58475;49.662;9.636;2022-09-17T05:33:04;9.82;90.52
70851;DHT22;58475;49.662;9.636;2022-09-17T05:35:30;9.86;91.05
70851;DHT22;58475;49.662;9.636;2022-09-17T05:37:58;9.82;89.95
70851;DHT22;58475;49.662;9.636;2022-09-17T05:40:25;9.86;89.30
70851;DHT22;58475;49.662;9.636;2022-09-17T05:42:50;9.72;90.21
70851;DHT22;58475;49.662;9.636;2022-09-17T05:45:15;9.82;91.78
70851;DHT22;58475;49.662;9.636;2022-09-17T05:47:41;9.78;89.78
70851;DHT22;58475;49.662;9.636;2022-09-17T05:50:06;9.86;89.78
70851;DHT22;58475;49.662;9.636;2022-09-17T05:52:32;9.86;90.70
70851;DHT22;58475;49.662;9.636;2022-09-17T05:54:57;9.79;91.78
70851;DHT22;58475;49.662;9.636;2022-09-17T05:57:23;10.00;91.92
70851;DHT22;58475;49.662;9.636;2022-09-17T05:59:48;9.89;91.63
70851;DHT22;58475;49.662;9.636;2022-09-17T06:02:14;9.89;90.96
70851;DHT22;58475;49.662;9.636;2022-09-17T06:04:39;10.04;91.55
70851;DHT22;58475;49.662;9.636;2022-09-17T06:07:05;9.93;91.40
70851;DHT22;58475;49.662;9.636;2022-09-17T06:09:35;9.89;91.52
70851;DHT22;58475;49.662;9.636;2022-09-17T06:12:02;9.75;89.77
70851;DHT22;58475;49.662;9.636;2022-09-17T06:14:28;9.89;90.32
70851;DHT22;58475;49.662;9.636;2022-09-17T06:16:55;9.96;91.23
70851;DHT22;58475;49.662;9.636;2022-09-17T06:19:20;9.92;92.21
70851;DHT22;58475;49.662;9.636;2022-09-17T06:21:46;10.12;91.07
70851;DHT22;58475;49.662;9.636;2022-09-17T06:24:11;10.06;89.76
70851;DHT22;58475;49.662;9.636;2022-09-17T06:26:36;10.14;92.04
70851;DHT22;58475;49.662;9.636;2022-09-17T06:29:02;10.21;91.17
70851;DHT22;58475;49.662;9.636;2022-09-17T06:31:27;10.20;91.41
70851;DHT22;58475;49.662;9.636;2022-09-17T06:33:55;10.25;90.67
70851;DHT22;58475;49.662;9.636;2022-09-17T06:36:21;10.24;91.76
70851;DHT22;58475;49.662;9.636;2022-09-17T06:38:46;10.31;90.08
70851;DHT22;58475;49.662;9.636;2022-09-17T06:41:12;10.24;90.39
70851;DHT22;58475;49.662;9.636;2022-09-17T06:43:38;10.31;91.31
70851;DHT22;58475;49.662;9.636;2022-09-17T06:46:04;10.27;90.81
70851;DHT22;58475;49.662;9.636;2022-09-17T06:48:32;10.43;90.48
70851;DHT22;58475;49.662;9.636;2022-09-17T06:51:06;10.29;90.46
70851;DHT22;58475;49.662;9.636;2022-09-17T06:53:33;10.45;91.53
70851;DHT22;58475;49.662;9.636;2022-09-17T06:55:59;10.45;89.17
70851;DHT22;58475;49.662;9.636;2022-09-17T06:58:25;10.54;88.60
70851;DHT22;58475;49.662;9.636;2022-09-17T07:00:51;10.40;87.24
70851;DHT22;58475;49.662;9.636;2022-09-17T07:03:18;10.43;89.01
70851;DHT22;58475;49.662;9.636;2022-09-17T07:05:47;10.44;90.05
70851;DHT22;58475;49.662;9.636;2022-09-17T07:08:13;10.55;90.85
70851;DHT22;58475;49.662;9.636;2022-09-17T07:10:38;10.34;88.90
70851;DHT22;58475;49.662;9.636;2022-09-17T07:13:03;10.29;88.46
70851;DHT22;58475;49.662;9.636;2022-09-17T07:15:29;10.45;90.14
70851;DHT22;58475;49.662;9.636;2022-09-17T07:17:54;10.51;88.95
70851;DHT22;58475;49.662;9.636;2022-09-17T07:20:20;10.65;89.35
70851;DHT22;58475;49.662;9.636;2022-09-17T07:22:54;10.72;89.55
70851;DHT22;58475;49.662;9.636;2022-09-17T07:25:20;10.88;89.09
70851;DHT22;58475;49.662;9.636;2022-09-17T07:27:45;11.18;87.60
70851;DHT22;58475;49.662;9.636;2022-09-17T07:30:11;11.18;88.01
70851;DHT22;58475;49.662;9.636;2022-09-17T07:32:37;11.22;87.41
70851;DHT22;58475;49.662;9.636;2022-09-17T07:35:02;11.43;86.80
70851;DHT22;58475;49.662;9.636;2022-09-17T07:37:28;11.39;87.46
70851;DHT22;58475;49.662;9.636;2022-09-17T07:39:54;11.51;87.35
70851;DHT22;58475;49.662;9.636;2022-09-17T07:42:19;11.78;86.34
70851;DHT22;58475;49.662;9.636;2022-09-17T07:44:45;12.31;85.88
70851;DHT22;58475;49.662;9.636;2022-09-17T07:47:11;12.77;84.36
70851;DHT22;58475;49.662;9.636;2022-09-17T07:49:37;13.08;83.14
70851;DHT22;58475;49.662;9.636;2022-09-17T07:52:02;13.10;81.32
70851;DHT22;58475;49.662;9.636;2022-09-17T07:54:31;13.41;79.85
70851;DHT22;58475;49.662;9.636;2022-09-17T07:56:57;13.51;80.04
70851;DHT22;58475;49.662;9.636;2022-09-17T07:59:23;12.99;82.76
70851;DHT22;58475;49.662;9.636;2022-09-17T08:01:48;12.69;82.18
70851;DHT22;58475;49.662;9.636;2022-09-17T08:04:14;12.63;82.58
70851;DHT22;58475;49.662;9.636;2022-09-17T08:06:39;12.35;82.53
70851;DHT22;58475;49.662;9.636;2022-09-17T08:09:05;13.35;81.41
70851;DHT22;58475;49.662;9.636;2022-09-17T08:11:31;12.81;81.13
70851;DHT22;58475;49.662;9.636;2022-09-17T08:13:57;12.66;82.68
70851;DHT22;58475;49.662;9.636;2022-09-17T08:16:23;12.45;83.15
70851;DHT22;58475;49.662;9.636;2022-09-17T08:18:53;12.38;82.72
70851;DHT22;58475;49.662;9.636;2022-09-17T08:21:19;12.52;83.72
70851;DHT22;58475;49.662;9.636;2022-09-17T08:23:44;12.22;83.31
70851;DHT22;58475;49.662;9.636;2022-09-17T08:26:12;12.19;81.67
70851;DHT22;58475;49.662;9.636;2022-09-17T08:28:38;11.88;81.53
70851;DHT22;58475;49.662;9.636;2022-09-17T08:31:08;11.80;82.60
70851;DHT22;58475;49.662;9.636;2022-09-17T08:33:35;12.01;83.59
70851;DHT22;58475;49.662;9.636;2022-09-17T08:36:01;12.01;82.52
70851;DHT22;58475;49.662;9.636;2022-09-17T08:38:28;12.32;83.81
70851;DHT22;58475;49.662;9.636;2022-09-17T08:43:23;12.94;80.55
70851;DHT22;58475;49.662;9.636;2022-09-17T08:45:54;13.07;79.63
70851;DHT22;58475;49.662;9.636;2022-09-17T08:48:20;13.63;78.31
70851;DHT22;58475;49.662;9.636;2022-09-17T08:50:46;12.93;78.87
70851;DHT22;58475;49.662;9.636;2022-09-17T08:53:21;13.58;80.62
70851;DHT22;58475;49.662;9.636;2022-09-17T08:56:01;14.10;76.72
70851;DHT22;58475;49.662;9.636;2022-09-17T09:01:30;14.31;75.10
70851;DHT22;58475;49.662;9.636;2022-09-17T09:06:30;14.29;73.88
70851;DHT22;58475;49.662;9.636;2022-09-17T09:09:00;15.05;71.55
70851;DHT22;58475;49.662;9.636;2022-09-17T09:11:29;16.14;70.71
70851;DHT22;58475;49.662;9.636;2022-09-17T09:14:03;14.77;70.31
70851;DHT22;58475;49.662;9.636;2022-09-17T09:16:31;14.63;71.24
70851;DHT22;58475;49.662;9.636;2022-09-17T09:19:20;15.51;71.04
70851;DHT22;58475;49.662;9.636;2022-09-17T09:21:55;15.57;71.82
70851;DHT22;58475;49.662;9.636;2022-09-17T09:24:25;14.31;71.34
70851;DHT22;58475;49.662;9.636;2022-09-17T09:35:00;16.84;67.16
70851;DHT22;58475;49.662;9.636;2022-09-17T09:37:30;16.75;66.56
70851;DHT22;58475;49.662;9.636;2022-09-17T09:40:11;16.66;67.43
70851;DHT22;58475;49.662;9.636;2022-09-17T09:42:42;15.83;65.04
70851;DHT22;58475;49.662;9.636;2022-09-17T09:45:14;15.03;67.00
70851;DHT22;58475;49.662;9.636;2022-09-17T09:53:41;14.71;69.15
70851;DHT22;58475;49.662;9.636;2022-09-17T09:56:28;15.76;69.00
70851;DHT22;58475;49.662;9.636;2022-09-17T09:58:56;15.70;67.61
70851;DHT22;58475;49.662;9.636;2022-09-17T10:01:26;16.25;67.26
70851;DHT22;58475;49.662;9.636;2022-09-17T10:03:52;16.07;66.47
70851;DHT22;58475;49.662;9.636;2022-09-17T10:06:18;15.91;64.71
70851;DHT22;58475;49.662;9.636;2022-09-17T10:11:22;16.14;66.57
70851;DHT22;58475;49.662;9.636;2022-09-17T10:13:48;15.36;66.88
70851;DHT22;58475;49.662;9.636;2022-09-17T10:16:26;15.33;68.06
70851;DHT22;58475;49.662;9.636;2022-09-17T10:21:39;15.10;67.65
70851;DHT22;58475;49.662;9.636;2022-09-17T10:24:26;14.98;67.31
70851;DHT22;58475;49.662;9.636;2022-09-17T10:27:00;16.35;64.41
70851;DHT22;58475;49.662;9.636;2022-09-17T10:29:26;17.00;63.21
70851;DHT22;58475;49.662;9.636;2022-09-17T10:31:54;17.14;61.90
70851;DHT22;58475;49.662;9.636;2022-09-17T10:34:25;17.07;60.79
70851;DHT22;58475;49.662;9.636;2022-09-17T10:36:51;16.05;61.62
70851;DHT22;58475;49.662;9.636;2022-09-17T10:39:22;17.04;63.85
70851;DHT22;58475;49.662;9.636;2022-09-17T10:42:00;16.67;59.90
70851;DHT22;58475;49.662;9.636;2022-09-17T10:44:30;17.72;61.00
70851;DHT22;58475;49.662;9.636;2022-09-17T10:49:40;17.64;59.85
70851;DHT22;58475;49.662;9.636;2022-09-17T10:52:17;17.32;61.81
70851;DHT22;58475;49.662;9.636;2022-09-17T10:57:23;18.05;58.44
70851;DHT22;58475;49.662;9.636;2022-09-17T11:00:09;17.44;58.06
70851;DHT22;58475;49.662;9.636;2022-09-17T11:03:03;17.02;60.29
70851;DHT22;58475;49.662;9.636;2022-09-17T11:05:57;16.87;60.27
70851;DHT22;58475;49.662;9.636;2022-09-17T11:11:19;17.08;58.30
70851;DHT22;58475;49.662;9.636;2022-09-17T11:16:40;16.69;59.18
70851;DHT22;58475;49.662;9.636;2022-09-17T11:30:09;17.39;56.58
70851;DHT22;58475;49.662;9.636;2022-09-17T11:35:47;14.68;65.25
70851;DHT22;58475;49.662;9.636;2022-09-17T11:38:21;14.67;68.39
70851;DHT22;58475;49.662;9.636;2022-09-17T11:41:03;14.60;67.81
70851;DHT22;58475;49.662;9.636;2022-09-17T11:43:33;13.89;69.21
70851;DHT22;58475;49.662;9.636;2022-09-17T11:46:21;13.92;74.05
70851;DHT22;58475;49.662;9.636;2022-09-17T11:54:17;14.20;75.76
70851;DHT22;58475;49.662;9.636;2022-09-17T11:56:48;14.34;72.30
70851;DHT22;58475;49.662;9.636;2022-09-17T11:59:35;15.15;72.34
70851;DHT22;58475;49.662;9.636;2022-09-17T12:04:54;15.03;70.30
70851;DHT22;58475;49.662;9.636;2022-09-17T12:07:42;14.64;71.05
70851;DHT22;58475;49.662;9.636;2022-09-17T12:10:31;14.89;71.22
70851;DHT22;58475;49.662;9.636;2022-09-17T12:13:08;14.87;70.61
70851;DHT22;58475;49.662;9.636;2022-09-17T12:15:39;14.74;69.60
70851;DHT22;58475;49.662;9.636;2022-09-17T12:18:27;14.82;68.77
70851;DHT22;58475;49.662;9.636;2022-09-17T12:20:56;14.92;68.77
70851;DHT22;58475;49.662;9.636;2022-09-17T12:23:36;15.19;67.70
70851;DHT22;58475;49.662;9.636;2022-09-17T12:32:16;16.35;64.19
70851;DHT22;58475;49.662;9.636;2022-09-17T12:37:52;16.09;63.28
70851;DHT22;58475;49.662;9.636;2022-09-17T12:40:43;15.08;63.01
70851;DHT22;58475;49.662;9.636;2022-09-17T12:54:37;16.84;59.73
70851;DHT22;58475;49.662;9.636;2022-09-17T13:00:02;15.90;60.73
70851;DHT22;58475;49.662;9.636;2022-09-17T13:02:49;16.11;60.37
70851;DHT22;58475;49.662;9.636;2022-09-17T13:16:17;17.42;57.39
70851;DHT22;58475;49.662;9.636;2022-09-17T13:18:56;16.72;57.92
70851;DHT22;58475;49.662;9.636;2022-09-17T13:23:56;15.97;60.77
70851;DHT22;58475;49.662;9.636;2022-09-17T13:26:33;15.88;60.43
70851;DHT22;58475;49.662;9.636;2022-09-17T13:28:59;15.49;59.76
70851;DHT22;58475;49.662;9.636;2022-09-17T13:34:00;16.25;59.41
70851;DHT22;58475;49.662;9.636;2022-09-17T13:42:15;16.56;57.81
70851;DHT22;58475;49.662;9.636;2022-09-17T13:45:03;16.67;56.83
70851;DHT22;58475;49.662;9.636;2022-09-17T13:47:34;17.20;57.70
70851;DHT22;58475;49.662;9.636;2022-09-17T13:55:01;16.81;58.19
70851;DHT22;58475;49.662;9.636;2022-09-17T13:57:28;16.48;56.95
70851;DHT22;58475;49.662;9.636;2022-09-17T13:59:57;16.81;57.43
70851;DHT22;58475;49.662;9.636;2022-09-17T14:04:50;16.99;56.21
70851;DHT22;58475;49.662;9.636;2022-09-17T14:09:52;17.17;55.04
70851;DHT22;58475;49.662;9.636;2022-09-17T14:18:41;16.33;59.11
70851;DHT22;58475;49.662;9.636;2022-09-17T14:23:34;17.58;57.80
70851;DHT22;58475;49.662;9.636;2022-09-17T14:26:11;17.58;57.59
70851;DHT22;58475;49.662;9.636;2022-09-17T14:29:09;17.62;56.29
70851;DHT22;58475;49.662;9.636;2022-09-17T14:31:37;17.11;56.66
70851;DHT22;58475;49.662;9.636;2022-09-17T14:34:15;17.16;57.30
70851;DHT22;58475;49.662;9.636;2022-09-17T14:36:42;17.42;58.14
70851;DHT22;58475;49.662;9.636;2022-09-17T14:39:14;17.02;58.62
70851;DHT22;58475;49.662;9.636;2022-09-17T14:41:42;16.90;57.05
70851;DHT22;58475;49.662;9.636;2022-09-17T14:44:14;16.72;59.25
70851;DHT22;58475;49.662;9.636;2022-09-17T14:46:59;17.62;58.40
70851;DHT22;58475;49.662;9.636;2022-09-17T14:49:27;16.88;58.70
70851;DHT22;58475;49.662;9.636;2022-09-17T14:51:54;17.07;57.61
70851;DHT22;58475;49.662;9.636;2022-09-17T14:54:24;16.75;58.74
70851;DHT22;58475;49.662;9.636;2022-09-17T14:57:15;16.57;58.91
70851;DHT22;58475;49.662;9.636;2022-09-17T14:59:49;16.51;57.69
70851;DHT22;58475;49.662;9.636;2022-09-17T15:05:00;16.55;58.70
70851;DHT22;58475;49.662;9.636;2022-09-17T15:07:28;16.51;58.55
70851;DHT22;58475;49.662;9.636;2022-09-17T15:10:05;16.36;58.56
70851;DHT22;58475;49.662;9.636;2022-09-17T15:12:30;16.00;58.96
70851;DHT22;58475;49.662;9.636;2022-09-17T15:14:56;15.77;59.10
70851;DHT22;58475;49.662;9.636;2022-09-17T15:17:22;15.58;59.59
70851;DHT22;58475;49.662;9.636;2022-09-17T15:19:51;15.67;62.40
70851;DHT22;58475;49.662;9.636;2022-09-17T15:22:28;15.86;60.94
70851;DHT22;58475;49.662;9.636;2022-09-17T15:27:40;15.87;60.75
70851;DHT22;58475;49.662;9.636;2022-09-17T15:30:17;15.64;59.65
70851;DHT22;58475;49.662;9.636;2022-09-17T15:32:52;15.50;59.90
70851;DHT22;58475;49.662;9.636;2022-09-17T15:35:29;15.88;60.91
70851;DHT22;58475;49.662;9.636;2022-09-17T15:37:57;16.02;60.54
70851;DHT22;58475;49.662;9.636;2022-09-17T15:40:30;16.04;56.69
70851;DHT22;58475;49.662;9.636;2022-09-17T15:45:29;15.87;55.24
70851;DHT22;58475;49.662;9.636;2022-09-17T15:48:00;15.58;55.78
70851;DHT22;58475;49.662;9.636;2022-09-17T15:50:33;15.28;56.48
70851;DHT22;58475;49.662;9.636;2022-09-17T15:55:35;15.15;58.27
70851;DHT22;58475;49.662;9.636;2022-09-17T15:58:04;14.89;61.38
70851;DHT22;58475;49.662;9.636;2022-09-17T16:00:30;14.47;65.70
70851;DHT22;58475;49.662;9.636;2022-09-17T16:02:56;13.95;69.31
70851;DHT22;58475;49.662;9.636;2022-09-17T16:07:51;13.38;73.55
70851;DHT22;58475;49.662;9.636;2022-09-17T16:10:19;12.50;77.47
70851;DHT22;58475;49.662;9.636;2022-09-17T16:12:48;12.28;80.81
70851;DHT22;58475;49.662;9.636;2022-09-17T16:15:13;12.14;80.60
70851;DHT22;58475;49.662;9.636;2022-09-17T16:17:44;12.17;80.92
70851;DHT22;58475;49.662;9.636;2022-09-17T16:20:19;12.22;82.23
70851;DHT22;58475;49.662;9.636;2022-09-17T16:22:46;12.08;82.14
70851;DHT22;58475;49.662;9.636;2022-09-17T16:25:12;12.01;83.47
70851;DHT22;58475;49.662;9.636;2022-09-17T16:27:44;12.01;83.37
70851;DHT22;58475;49.662;9.636;2022-09-17T16:30:13;12.18;85.67
70851;DHT22;58475;49.662;9.636;2022-09-17T16:32:39;12.24;84.04
70851;DHT22;58475;49.662;9.636;2022-09-17T16:35:04;11.81;81.19
70851;DHT22;58475;49.662;9.636;2022-09-17T16:37:30;11.87;83.93
70851;DHT22;58475;49.662;9.636;2022-09-17T16:39:55;11.71;83.53
70851;DHT22;58475;49.662;9.636;2022-09-17T16:42:21;11.71;84.90
70851;DHT22;58475;49.662;9.636;2022-09-17T16:44:46;11.75;84.73
70851;DHT22;58475;49.662;9.636;2022-09-17T16:47:12;11.91;83.29
70851;DHT22;58475;49.662;9.636;2022-09-17T16:49:37;11.84;83.96
70851;DHT22;58475;49.662;9.636;2022-09-17T16:52:02;11.71;84.16
70851;DHT22;58475;49.662;9.636;2022-09-17T16:54:28;11.73;84.32
70851;DHT22;58475;49.662;9.636;2022-09-17T16:56:54;11.92;83.06
70851;DHT22;58475;49.662;9.636;2022-09-17T16:59:19;11.92;82.43
70851;DHT22;58475;49.662;9.636;2022-09-17T17:01:45;11.81;82.73
70851;DHT22;58475;49.662;9.636;2022-09-17T17:04:14;11.63;83.56
70851;DHT22;58475;49.662;9.636;2022-09-17T17:06:40;11.60;83.75
70851;DHT22;58475;49.662;9.636;2022-09-17T17:09:06;11.57;84.75
70851;DHT22;58475;49.662;9.636;2022-09-17T17:11:31;11.81;86.19
70851;DHT22;58475;49.662;9.636;2022-09-17T17:13:57;11.85;86.22
70851;DHT22;58475;49.662;9.636;2022-09-17T17:16:22;11.77;82.46
70851;DHT22;58475;49.662;9.636;2022-09-17T17:18:49;11.71;80.68
70851;DHT22;58475;49.662;9.636;2022-09-17T17:21:17;11.57;81.90
70851;DHT22;58475;49.662;9.636;2022-09-17T17:23:43;11.60;83.41
70851;DHT22;58475;49.662;9.636;2022-09-17T17:26:08;11.53;82.59
70851;DHT22;58475;49.662;9.636;2022-09-17T17:28:34;11.69;86.33
70851;DHT22;58475;49.662;9.636;2022-09-17T17:31:01;11.40;86.90
70851;DHT22;58475;49.662;9.636;2022-09-17T17:33:27;11.53;83.28
70851;DHT22;58475;49.662;9.636;2022-09-17T17:35:53;11.27;83.97
70851;DHT22;58475;49.662;9.636;2022-09-17T17:38:18;10.92;82.08
70851;DHT22;58475;49.662;9.636;2022-09-17T17:40:43;10.64;80.03
70851;DHT22;58475;49.662;9.636;2022-09-17T17:43:12;10.48;81.24
70851;DHT22;58475;49.662;9.636;2022-09-17T17:45:38;10.44;82.86
70851;DHT22;58475;49.662;9.636;2022-09-17T17:48:04;10.45;79.77
70851;DHT22;58475;49.662;9.636;2022-09-17T17:50:30;10.55;82.78
70851;DHT22;58475;49.662;9.636;2022-09-17T17:52:56;10.52;83.72
70851;DHT22;58475;49.662;9.636;2022-09-17T17:55:21;10.40;80.20
70851;DHT22;58475;49.662;9.636;2022-09-17T17:57:47;10.30;81.33
70851;DHT22;58475;49.662;9.636;2022-09-17T18:00:12;10.43;83.70
70851;DHT22;58475;49.662;9.636;2022-09-17T18:02:40;10.40;83.23
70851;DHT22;58475;49.662;9.636;2022-09-17T18:05:06;10.30;83.33
70851;DHT22;58475;49.662;9.636;2022-09-17T18:07:31;10.29;84.02
70851;DHT22;58475;49.662;9.636;2022-09-17T18:09:57;10.36;82.92
70851;DHT22;58475;49.662;9.636;2022-09-17T18:12:23;10.24;83.29
70851;DHT22;58475;49.662;9.636;2022-09-17T18:14:48;10.23;84.40
70851;DHT22;58475;49.662;9.636;2022-09-17T18:17:13;10.29;85.11
70851;DHT22;58475;49.662;9.636;2022-09-17T18:19:39;10.34;83.87
70851;DHT22;58475;49.662;9.636;2022-09-17T18:22:04;10.24;85.10
70851;DHT22;58475;49.662;9.636;2022-09-17T18:24:29;10.41;84.58
70851;DHT22;58475;49.662;9.636;2022-09-17T18:26:55;10.25;85.88
70851;DHT22;58475;49.662;9.636;2022-09-17T18:29:20;10.17;84.46
70851;DHT22;58475;49.662;9.636;2022-09-17T18:31:46;10.37;87.39
70851;DHT22;58475;49.662;9.636;2022-09-17T18:34:14;10.23;88.18